Time;durP1;ratioP1;P1;durP2;ratioP2;P2;SDS_P1;SDS_P2;PMS_P1;PMS_P2;Temp;Humidity;BMP_temperature;BMP_pressure;BME280_temperature;BME280_humidity;BME280_pressure;Samples;Min_cycle;Max_cycle;Signal;HPM_P1;HPM_P2
2021/03/09 00:01:09;;;;;;;32.72;20.20;;;5.70;80.60;;;;;;5062407;28;20072;-73
2021/03/09 00:03:35;;;;;;;34.10;19.50;;;5.70;80.50;;;;;;5066562;28;20104;-74
2021/03/09 00:06:00;;;;;;;30.50;19.20;;;5.60;80.40;;;;;;5063443;28;20024;-74
2021/03/09 00:08:26;;;;;;;30.25;18.33;;;5.60;80.20;;;;;;5061740;28;20571;-73
2021/03/09 00:10:52;;;;;;;33.60;19.65;;;5.70;80.40;;;;;;5064356;28;20472;-72
2021/03/09 00:13:17;;;;;;;30.98;19.02;;;5.60;80.30;;;;;;5060768;28;20111;-73
2021/03/09 00:15:43;;;;;;;31.25;18.60;;;5.60;79.80;;;;;;5060228;28;20040;-73
2021/03/09 00:18:10;;;;;;;30.77;17.98;;;5.60;79.90;;;;;;5062227;28;20128;-74
2021/03/09 00:20:36;;;;;;;32.53;18.67;;;5.60;80.50;;;;;;5065821;28;20036;-72
2021/03/09 00:23:01;;;;;;;27.00;17.25;;;5.60;80.00;;;;;;5058866;28;20032;-74
2021/03/09 00:25:27;;;;;;;27.15;17.40;;;5.70;80.20;;;;;;5066802;28;20028;-73
2021/03/09 00:27:53;;;;;;;34.25;19.30;;;5.60;80.10;;;;;;5061186;28;20143;-73
2021/03/09 00:30:19;;;;;;;28.90;19.08;;;5.60;80.30;;;;;;5064890;28;20121;-73
2021/03/09 00:32:45;;;;;;;29.10;18.02;;;5.60;80.50;;;;;;5062864;28;20485;-72
2021/03/09 00:35:11;;;;;;;34.67;19.17;;;5.60;80.50;;;;;;5064334;28;20033;-72
2021/03/09 00:37:37;;;;;;;31.38;18.60;;;5.70;80.60;;;;;;5061765;28;20033;-72
2021/03/09 00:40:03;;;;;;;31.52;18.27;;;5.60;80.60;;;;;;5053290;28;20044;-74
2021/03/09 00:42:29;;;;;;;30.85;18.73;;;5.60;80.80;;;;;;5061012;28;20128;-73
2021/03/09 00:44:55;;;;;;;30.92;19.20;;;5.60;81.00;;;;;;5061757;28;20116;-73
2021/03/09 00:47:20;;;;;;;28.80;17.80;;;5.60;81.20;;;;;;5058065;28;20064;-75
2021/03/09 00:49:46;;;;;;;29.85;18.30;;;5.60;81.30;;;;;;5066653;28;20056;-72
2021/03/09 00:52:11;;;;;;;33.20;19.48;;;5.60;81.70;;;;;;5057148;28;20409;-72
2021/03/09 00:54:37;;;;;;;33.30;20.75;;;5.60;81.70;;;;;;5068115;28;20029;-73
2021/03/09 00:57:03;;;;;;;33.25;19.33;;;5.60;82.00;;;;;;5056359;28;20102;-74
2021/03/09 00:59:29;;;;;;;34.83;20.95;;;5.60;82.10;;;;;;5057696;28;20047;-72
2021/03/09 01:01:54;;;;;;;33.47;19.85;;;5.50;82.30;;;;;;5065614;28;20542;-73
2021/03/09 01:04:20;;;;;;;31.60;19.92;;;5.50;82.30;;;;;;5063222;28;20100;-72
2021/03/09 01:06:45;;;;;;;33.05;21.30;;;5.50;82.50;;;;;;5054244;28;20134;-72
2021/03/09 01:09:11;;;;;;;31.33;19.80;;;5.60;82.60;;;;;;5058715;28;20036;-73
2021/03/09 01:11:37;;;;;;;32.28;20.02;;;5.50;82.60;;;;;;5067975;28;20036;-73
2021/03/09 01:14:02;;;;;;;35.88;21.75;;;5.60;82.90;;;;;;5054496;28;20035;-72
2021/03/09 01:16:28;;;;;;;34.78;21.50;;;5.50;83.40;;;;;;5059833;28;20021;-73
2021/03/09 01:18:54;;;;;;;31.70;20.30;;;5.50;83.40;;;;;;5067922;28;20044;-72
2021/03/09 01:21:19;;;;;;;31.23;18.73;;;5.50;83.40;;;;;;5069244;28;20024;-73
2021/03/09 01:23:45;;;;;;;35.50;20.00;;;5.50;83.60;;;;;;5063295;28;20036;-72
2021/03/09 01:26:11;;;;;;;34.50;20.63;;;5.50;83.70;;;;;;5061347;28;20428;-73
2021/03/09 01:28:36;;;;;;;35.28;20.48;;;5.50;83.70;;;;;;5059100;28;20033;-73
2021/03/09 01:31:02;;;;;;;34.17;19.92;;;5.50;83.80;;;;;;5056495;28;20031;-72
2021/03/09 01:33:28;;;;;;;33.45;20.63;;;5.50;83.90;;;;;;5056409;28;20033;-73
2021/03/09 01:35:53;;;;;;;34.75;19.20;;;5.50;83.90;;;;;;5063580;28;20037;-73
2021/03/09 01:38:19;;;;;;;34.40;20.50;;;5.50;83.90;;;;;;5061015;28;20067;-73
2021/03/09 01:40:45;;;;;;;36.72;22.08;;;5.50;83.90;;;;;;5066891;28;20056;-74
2021/03/09 01:43:11;;;;;;;35.00;20.33;;;5.50;84.10;;;;;;5060893;28;20425;-72
2021/03/09 01:45:36;;;;;;;30.55;20.42;;;5.50;84.10;;;;;;5061014;28;20025;-73
2021/03/09 01:48:05;;;;;;;30.40;18.65;;;5.50;84.10;;;;;;5058413;28;20329;-73
2021/03/09 01:50:34;;;;;;;31.30;19.60;;;5.50;84.10;;;;;;5063439;28;20029;-72
2021/03/09 01:53:04;;;;;;;34.03;20.25;;;5.60;84.10;;;;;;5063571;28;20028;-75
2021/03/09 01:55:29;;;;;;;33.00;19.95;;;5.50;83.80;;;;;;5062508;28;20080;-72
2021/03/09 01:57:55;;;;;;;36.40;20.40;;;5.50;83.90;;;;;;5064111;28;20093;-72
2021/03/09 02:00:21;;;;;;;30.90;18.60;;;5.50;84.00;;;;;;5058241;28;20466;-72
2021/03/09 02:02:47;;;;;;;29.38;18.38;;;5.50;83.50;;;;;;5061002;28;20024;-74
2021/03/09 02:05:13;;;;;;;31.58;18.55;;;5.50;83.40;;;;;;5065889;28;20435;-72
2021/03/09 02:07:39;;;;;;;29.17;17.83;;;5.50;83.90;;;;;;5065140;28;20037;-72
2021/03/09 02:10:08;;;;;;;31.38;18.65;;;5.50;83.70;;;;;;5062619;28;20089;-74
2021/03/09 02:13:08;;;;;;;32.10;18.80;;;5.50;83.50;;;;;;5064775;28;20056;-74
2021/03/09 02:15:53;;;;;;;30.73;18.23;;;5.40;83.30;;;;;;5051311;28;20041;-74
2021/03/09 02:18:47;;;;;;;28.58;17.55;;;5.50;83.30;;;;;;5056482;28;20055;-73
2021/03/09 02:21:56;;;;;;;29.52;17.65;;;5.50;83.20;;;;;;5061311;28;20078;-73
2021/03/09 02:24:43;;;;;;;31.33;18.90;;;5.40;83.30;;;;;;5055583;28;20032;-73
2021/03/09 02:27:23;;;;;;;33.92;19.83;;;5.50;83.00;;;;;;5056118;28;20047;-73
2021/03/09 02:30:05;;;;;;;31.23;19.20;;;5.40;83.10;;;;;;5057441;28;20491;-73
2021/03/09 02:32:36;;;;;;;30.45;18.50;;;5.40;83.30;;;;;;5056341;28;20559;-73
2021/03/09 02:35:03;;;;;;;32.58;20.13;;;5.40;83.40;;;;;;5057308;28;20033;-73
2021/03/09 02:37:34;;;;;;;31.80;18.67;;;5.40;83.30;;;;;;5061167;28;20490;-73
2021/03/09 02:40:03;;;;;;;32.13;19.42;;;5.40;83.40;;;;;;5059578;28;20028;-72
2021/03/09 02:42:30;;;;;;;32.45;19.73;;;5.40;83.60;;;;;;5063060;28;20070;-76
2021/03/09 02:44:59;;;;;;;30.25;18.38;;;5.40;83.70;;;;;;5053489;28;20124;-76
2021/03/09 02:47:26;;;;;;;33.33;18.98;;;5.40;83.70;;;;;;5059996;28;20123;-72
2021/03/09 02:49:54;;;;;;;30.67;18.98;;;5.40;84.00;;;;;;5056857;28;20383;-72
2021/03/09 02:52:22;;;;;;;31.80;19.67;;;5.40;84.00;;;;;;5065031;28;20054;-72
2021/03/09 02:54:50;;;;;;;33.80;19.45;;;5.40;83.90;;;;;;5062165;28;20094;-73
2021/03/09 02:57:17;;;;;;;30.35;19.23;;;5.50;83.80;;;;;;5062027;28;20052;-73
2021/03/09 02:59:44;;;;;;;32.08;18.88;;;5.40;83.90;;;;;;5064904;28;20039;-73
2021/03/09 03:02:12;;;;;;;32.00;19.25;;;5.40;83.90;;;;;;5055069;28;20040;-73
2021/03/09 03:04:43;;;;;;;30.27;18.35;;;5.40;84.00;;;;;;5062917;28;20056;-72
2021/03/09 03:07:11;;;;;;;34.05;18.67;;;5.40;83.90;;;;;;5068824;28;20387;-72
2021/03/09 03:09:37;;;;;;;28.42;17.67;;;5.40;83.90;;;;;;5058708;28;20029;-74
2021/03/09 03:12:04;;;;;;;31.48;18.70;;;5.40;83.80;;;;;;5057896;28;20025;-72
2021/03/09 03:14:31;;;;;;;35.50;19.70;;;5.40;83.70;;;;;;5063384;28;20032;-73
2021/03/09 03:17:01;;;;;;;29.33;18.20;;;5.40;83.80;;;;;;5061428;28;20049;-72
2021/03/09 03:19:27;;;;;;;31.95;19.50;;;5.40;83.60;;;;;;5065331;28;20087;-73
2021/03/09 03:21:54;;;;;;;36.22;20.27;;;5.40;83.30;;;;;;5063883;28;20462;-73
2021/03/09 03:24:20;;;;;;;34.50;21.63;;;5.40;83.10;;;;;;5050558;28;20036;-73
2021/03/09 03:26:47;;;;;;;36.28;21.60;;;5.40;83.10;;;;;;5057332;28;20115;-72
2021/03/09 03:29:14;;;;;;;36.30;22.55;;;5.40;82.90;;;;;;5050834;28;20037;-72
2021/03/09 03:31:40;;;;;;;37.25;23.77;;;5.40;82.80;;;;;;5063009;28;20524;-72
2021/03/09 03:34:06;;;;;;;38.17;23.63;;;5.40;82.90;;;;;;5066706;28;20043;-74
2021/03/09 03:36:36;;;;;;;41.80;23.88;;;5.40;82.70;;;;;;5066385;28;20029;-74
2021/03/09 03:39:04;;;;;;;43.85;25.05;;;5.40;82.60;;;;;;5066794;28;20044;-72
2021/03/09 03:41:30;;;;;;;42.88;26.95;;;5.40;82.70;;;;;;5059294;28;20034;-72
2021/03/09 03:43:56;;;;;;;40.58;25.90;;;5.30;82.70;;;;;;5064262;28;20275;-72
2021/03/09 03:46:21;;;;;;;45.85;27.02;;;5.40;82.70;;;;;;5056126;28;20044;-72
2021/03/09 03:48:47;;;;;;;44.10;28.63;;;5.30;82.70;;;;;;5061786;28;20037;-72
2021/03/09 03:51:15;;;;;;;47.70;28.58;;;5.30;82.80;;;;;;5063243;28;20083;-74
2021/03/09 03:54:15;;;;;;;45.50;27.90;;;5.30;82.90;;;;;;5052422;28;20115;-72
2021/03/09 03:57:15;;;;;;;47.30;28.90;;;5.30;82.90;;;;;;5038811;28;20510;-72
2021/03/09 03:59:43;;;;;;;54.55;31.55;;;5.20;82.40;;;;;;5048592;28;20043;-72
2021/03/09 04:02:11;;;;;;;51.15;31.42;;;5.20;82.70;;;;;;5055909;28;20028;-72
2021/03/09 04:04:38;;;;;;;49.10;30.15;;;5.20;82.70;;;;;;5064053;28;20059;-71
2021/03/09 04:07:06;;;;;;;48.47;30.27;;;5.20;82.80;;;;;;5053772;28;20047;-72
2021/03/09 04:09:32;;;;;;;51.80;32.28;;;5.20;82.80;;;;;;5058758;28;20391;-73
2021/03/09 04:12:00;;;;;;;56.67;33.03;;;5.20;82.70;;;;;;5059340;28;20413;-72
2021/03/09 04:14:25;;;;;;;56.13;33.47;;;5.10;82.70;;;;;;5069199;28;20021;-73
2021/03/09 04:16:54;;;;;;;53.70;33.08;;;5.10;82.70;;;;;;5045791;28;20040;-72
2021/03/09 04:19:22;;;;;;;58.80;33.55;;;5.10;82.70;;;;;;5046964;28;20047;-73
2021/03/09 04:21:48;;;;;;;55.13;33.33;;;5.10;82.70;;;;;;5046573;28;20029;-77
2021/03/09 04:24:15;;;;;;;52.83;32.50;;;5.10;82.90;;;;;;5029111;28;20107;-73
2021/03/09 04:26:43;;;;;;;54.90;33.25;;;5.10;83.00;;;;;;5033534;28;20033;-74
2021/03/09 04:29:10;;;;;;;55.17;34.00;;;5.10;82.70;;;;;;5043953;28;20438;-75
2021/03/09 04:31:41;;;;;;;58.80;34.72;;;5.10;82.80;;;;;;5038368;28;20029;-74
2021/03/09 04:34:07;;;;;;;55.65;33.03;;;5.10;82.80;;;;;;5035329;28;20033;-71
2021/03/09 04:36:34;;;;;;;59.17;34.95;;;5.10;82.70;;;;;;5039258;28;20049;-71
2021/03/09 04:39:02;;;;;;;55.15;33.70;;;5.10;82.70;;;;;;5040907;28;20094;-72
2021/03/09 04:41:28;;;;;;;52.33;32.10;;;5.10;82.90;;;;;;5029195;28;20033;-71
2021/03/09 04:43:54;;;;;;;56.80;35.08;;;5.10;82.80;;;;;;5038243;28;20037;-74
2021/03/09 04:46:23;;;;;;;52.15;31.60;;;5.10;83.00;;;;;;5035352;28;20473;-72
2021/03/09 04:48:49;;;;;;;58.42;34.60;;;5.10;83.10;;;;;;5044932;28;20045;-71
2021/03/09 04:51:17;;;;;;;57.58;34.58;;;5.10;83.20;;;;;;5043952;28;20494;-72
2021/03/09 04:53:44;;;;;;;59.65;35.15;;;5.10;83.10;;;;;;5037415;28;20446;-73
2021/03/09 04:56:10;;;;;;;57.50;35.63;;;5.10;83.20;;;;;;5041692;28;20456;-73
2021/03/09 04:58:36;;;;;;;55.88;33.55;;;5.10;83.10;;;;;;5044514;28;20045;-73
2021/03/09 05:01:03;;;;;;;55.47;33.90;;;5.10;83.00;;;;;;5042866;28;20108;-71
2021/03/09 05:03:29;;;;;;;62.75;37.20;;;5.10;83.10;;;;;;5060942;28;20033;-72
2021/03/09 05:05:54;;;;;;;61.60;35.53;;;5.10;82.90;;;;;;5060768;28;20039;-77
2021/03/09 05:08:21;;;;;;;60.05;36.20;;;5.20;83.00;;;;;;5054861;28;20829;-73
2021/03/09 05:10:47;;;;;;;59.17;34.72;;;5.20;82.70;;;;;;5056742;28;20061;-75
2021/03/09 05:13:14;;;;;;;60.55;35.95;;;5.20;82.80;;;;;;5052529;28;20043;-74
2021/03/09 05:15:40;;;;;;;57.42;34.15;;;5.30;82.60;;;;;;5056196;28;20069;-75
2021/03/09 05:18:06;;;;;;;62.42;36.65;;;5.30;82.50;;;;;;5057372;28;20144;-75
2021/03/09 05:20:31;;;;;;;60.75;34.30;;;5.30;82.30;;;;;;5059902;28;20061;-74
2021/03/09 05:22:57;;;;;;;62.58;34.08;;;5.30;82.30;;;;;;5067312;28;20052;-75
2021/03/09 05:25:23;;;;;;;57.90;34.75;;;5.40;81.70;;;;;;5057101;28;20036;-75
2021/03/09 05:27:48;;;;;;;57.58;35.05;;;5.40;81.80;;;;;;5055266;28;20523;-74
2021/03/09 05:30:17;;;;;;;55.67;34.22;;;5.40;81.90;;;;;;5064372;28;20040;-74
2021/03/09 05:32:43;;;;;;;58.13;34.78;;;5.40;82.00;;;;;;5053097;28;20086;-74
2021/03/09 05:35:10;;;;;;;59.35;35.67;;;5.40;81.80;;;;;;5054240;28;20111;-74
2021/03/09 05:37:35;;;;;;;54.63;33.80;;;5.30;82.10;;;;;;5060400;28;20035;-75
2021/03/09 05:40:01;;;;;;;62.92;34.33;;;5.30;82.00;;;;;;5047388;28;20372;-74
2021/03/09 05:42:27;;;;;;;58.10;34.95;;;5.30;82.10;;;;;;5056541;28;20379;-72
2021/03/09 05:44:53;;;;;;;56.20;33.28;;;5.20;82.20;;;;;;5060493;28;20112;-76
2021/03/09 05:47:21;;;;;;;62.00;36.15;;;5.20;82.30;;;;;;5060045;28;20088;-73
2021/03/09 05:49:47;;;;;;;58.30;34.65;;;5.30;82.40;;;;;;5061125;28;20035;-72
2021/03/09 05:52:17;;;;;;;61.20;35.38;;;5.20;82.40;;;;;;5055291;28;20396;-72
2021/03/09 05:54:43;;;;;;;58.13;34.53;;;5.20;82.60;;;;;;5057286;28;20035;-72
2021/03/09 05:57:08;;;;;;;61.38;35.88;;;5.20;82.80;;;;;;5055130;28;20108;-73
2021/03/09 05:59:34;;;;;;;61.33;35.97;;;5.20;83.20;;;;;;5058375;28;20048;-73
2021/03/09 06:02:00;;;;;;;60.17;35.90;;;5.10;83.20;;;;;;5056218;28;20051;-72
2021/03/09 06:04:26;;;;;;;60.75;35.75;;;5.10;83.20;;;;;;5048448;28;20086;-74
2021/03/09 06:06:52;;;;;;;62.70;37.78;;;5.20;83.00;;;;;;5051826;28;20493;-72
2021/03/09 06:09:33;;;;;;;61.03;36.50;;;5.20;83.10;;;;;;5059216;28;20079;-73
2021/03/09 06:12:09;;;;;;;65.32;38.10;;;5.20;83.20;;;;;;5059594;28;20394;-73
2021/03/09 06:14:41;;;;;;;62.42;37.80;;;5.20;83.30;;;;;;5042207;28;20456;-75
2021/03/09 06:17:11;;;;;;;60.83;36.65;;;5.20;83.30;;;;;;5035466;28;20130;-74
2021/03/09 06:19:41;;;;;;;62.83;37.58;;;5.20;83.50;;;;;;5037935;28;20037;-73
2021/03/09 06:22:07;;;;;;;62.92;38.33;;;5.20;83.50;;;;;;5043473;28;20056;-73
2021/03/09 06:24:33;;;;;;;59.92;36.40;;;5.30;83.60;;;;;;5040109;28;20029;-73
2021/03/09 06:26:59;;;;;;;60.47;36.83;;;5.20;83.60;;;;;;5038611;28;20059;-74
2021/03/09 06:29:24;;;;;;;60.90;36.08;;;5.20;83.60;;;;;;5039922;28;20027;-72
2021/03/09 06:31:56;;;;;;;64.80;38.80;;;5.20;83.70;;;;;;5041866;28;20091;-72
2021/03/09 06:34:34;;;;;;;62.08;37.22;;;5.20;83.70;;;;;;5042391;28;20037;-72
2021/03/09 06:37:08;;;;;;;64.43;37.05;;;5.20;84.00;;;;;;5043442;28;20547;-69
2021/03/09 06:39:46;;;;;;;68.85;39.10;;;5.20;84.10;;;;;;5060420;28;20057;-68
2021/03/09 06:42:13;;;;;;;60.25;36.65;;;5.30;84.10;;;;;;5048480;28;20521;-68
2021/03/09 06:44:39;;;;;;;66.57;39.83;;;5.30;84.00;;;;;;5058143;28;20116;-68
2021/03/09 06:47:06;;;;;;;63.85;38.70;;;5.30;83.90;;;;;;5059825;28;20060;-68
2021/03/09 06:49:51;;;;;;;62.20;38.38;;;5.40;83.90;;;;;;5064828;28;20527;-68
2021/03/09 06:52:18;;;;;;;;;;;5.50;83.80;;;;;;5056503;28;20115;-68
2021/03/09 06:54:46;;;;;;;68.05;39.65;;;5.50;83.80;;;;;;5065238;28;19908;-68
2021/03/09 06:57:11;;;;;;;64.85;39.15;;;5.50;83.90;;;;;;5054303;28;20069;-68
2021/03/09 06:59:40;;;;;;;70.20;41.05;;;5.50;83.80;;;;;;5061912;28;20060;-70
2021/03/09 07:02:11;;;;;;;66.88;41.60;;;5.50;84.00;;;;;;5055650;28;20036;-69
2021/03/09 07:04:51;;;;;;;66.50;39.25;;;5.50;83.90;;;;;;5059209;28;20554;-68
2021/03/09 07:07:29;;;;;;;69.28;42.50;;;5.50;84.10;;;;;;5055887;28;20052;-67
2021/03/09 07:09:58;;;;;;;65.22;40.90;;;5.60;84.10;;;;;;5065528;28;20116;-68
2021/03/09 07:12:24;;;;;;;66.40;41.20;;;5.60;84.10;;;;;;5058789;28;20036;-68
2021/03/09 07:14:51;;;;;;;64.88;41.78;;;5.60;84.10;;;;;;5061265;28;20037;-67
2021/03/09 07:17:21;;;;;;;62.25;39.58;;;5.60;84.10;;;;;;5057279;28;20052;-69
2021/03/09 07:19:47;;;;;;;69.22;43.03;;;5.60;84.00;;;;;;5067397;28;20827;-68
2021/03/09 07:22:15;;;;;;;69.70;42.92;;;5.70;84.00;;;;;;5065731;28;20496;-69
2021/03/09 07:25:02;;;;;;;70.82;43.90;;;5.70;83.80;;;;;;5064516;28;20025;-69
2021/03/09 07:27:57;;;;;;;70.88;43.63;;;5.70;83.80;;;;;;5058608;28;20145;-73
2021/03/09 07:30:31;;;;;;;71.47;43.53;;;5.80;83.80;;;;;;5055642;28;20032;-69
2021/03/09 07:32:58;;;;;;;69.60;43.70;;;5.90;83.90;;;;;;5057561;28;20143;-70
2021/03/09 07:35:25;;;;;;;65.70;44.38;;;5.90;83.90;;;;;;5053616;28;20097;-70
2021/03/09 07:37:53;;;;;;;68.50;43.55;;;6.00;84.00;;;;;;5063412;28;20037;-69
2021/03/09 07:40:22;;;;;;;67.25;43.30;;;6.00;83.80;;;;;;5065068;28;20040;-70
2021/03/09 07:42:48;;;;;;;66.20;41.83;;;6.10;83.80;;;;;;5057242;28;20379;-71
2021/03/09 07:45:19;;;;;;;66.10;41.95;;;6.10;83.80;;;;;;5061341;28;20430;-69
2021/03/09 07:47:54;;;;;;;60.03;39.33;;;6.10;83.90;;;;;;5057595;28;20079;-73
2021/03/09 07:50:22;;;;;;;63.55;41.15;;;6.10;83.90;;;;;;5064062;28;20408;-71
2021/03/09 07:52:59;;;;;;;60.58;39.45;;;6.10;83.80;;;;;;5061140;28;20098;-70
2021/03/09 07:55:26;;;;;;;64.13;40.15;;;6.20;83.80;;;;;;5051886;28;20081;-70
2021/03/09 07:58:18;;;;;;;62.00;38.92;;;6.10;83.90;;;;;;5050188;28;20451;-71
2021/03/09 08:00:58;;;;;;;65.40;41.10;;;6.10;84.00;;;;;;5041514;28;20072;-73
2021/03/09 08:03:25;;;;;;;62.03;40.40;;;6.30;84.00;;;;;;5057775;28;20090;-70
2021/03/09 08:05:53;;;;;;;59.88;38.30;;;6.30;83.80;;;;;;5057424;28;20355;-70
2021/03/09 08:08:49;;;;;;;59.35;38.30;;;6.30;84.00;;;;;;5060530;28;20483;-70
2021/03/09 08:11:24;;;;;;;58.33;37.97;;;6.30;84.10;;;;;;5059521;28;20037;-69
2021/03/09 08:14:17;;;;;;;65.35;40.25;;;6.30;84.20;;;;;;5068232;28;20068;-69
2021/03/09 08:16:43;;;;;;;53.22;36.72;;;6.40;84.00;;;;;;5056388;28;20047;-69
2021/03/09 08:19:25;;;;;;;59.17;38.80;;;6.40;84.10;;;;;;5062208;28;20044;-69
2021/03/09 08:21:59;;;;;;;61.83;37.67;;;6.40;84.20;;;;;;5063274;28;20036;-69
2021/03/09 08:24:41;;;;;;;57.25;37.33;;;6.40;84.30;;;;;;5055814;28;21169;-70
2021/03/09 08:27:28;;;;;;;57.10;36.47;;;6.50;84.40;;;;;;5066194;28;20041;-70
2021/03/09 08:30:25;;;;;;;62.55;37.70;;;6.60;84.20;;;;;;5059856;28;20033;-70
2021/03/09 08:32:50;;;;;;;59.15;35.88;;;6.70;84.00;;;;;;5055704;28;20024;-70
2021/03/09 08:35:16;;;;;;;53.90;35.53;;;6.80;84.10;;;;;;5064232;28;20494;-70
2021/03/09 08:37:49;;;;;;;56.45;36.53;;;6.80;83.90;;;;;;5068790;28;20040;-70
2021/03/09 08:40:20;;;;;;;51.08;34.10;;;6.90;84.00;;;;;;5069463;28;20139;-71
2021/03/09 08:43:01;;;;;;;51.20;33.22;;;6.90;83.90;;;;;;5061948;28;20128;-70
2021/03/09 08:45:37;;;;;;;51.45;31.35;;;7.10;84.00;;;;;;5056601;28;20399;-69
2021/03/09 08:48:04;;;;;;;47.85;31.38;;;7.10;83.70;;;;;;5056314;28;20083;-70
2021/03/09 08:50:43;;;;;;;46.92;30.55;;;7.20;83.70;;;;;;5065203;28;20086;-70
2021/03/09 08:53:31;;;;;;;47.60;31.65;;;7.30;84.00;;;;;;5057475;28;20141;-69
2021/03/09 08:55:58;;;;;;;42.78;29.35;;;7.40;84.00;;;;;;5058575;28;20371;-70
2021/03/09 08:58:24;;;;;;;43.75;29.02;;;7.50;83.80;;;;;;5060395;28;20037;-69
2021/03/09 09:00:51;;;;;;;40.78;27.33;;;7.60;83.60;;;;;;5065374;28;20037;-69
2021/03/09 09:03:36;;;;;;;38.90;26.33;;;7.70;83.00;;;;;;5075325;28;20044;-71
2021/03/09 09:06:02;;;;;;;40.65;27.25;;;7.60;82.50;;;;;;5068226;28;20032;-70
2021/03/09 09:08:28;;;;;;;38.28;26.25;;;7.60;82.80;;;;;;5065003;28;20024;-72
2021/03/09 09:10:54;;;;;;;39.50;27.52;;;7.50;83.20;;;;;;5058274;28;20135;-71
2021/03/09 09:13:33;;;;;;;43.25;27.77;;;7.50;83.50;;;;;;5070671;28;22881;-74
2021/03/09 09:16:00;;;;;;;39.40;26.77;;;7.40;83.80;;;;;;5058697;28;20163;-69
2021/03/09 09:18:26;;;;;;;43.78;29.58;;;7.50;83.80;;;;;;5069708;28;20047;-71
2021/03/09 09:20:53;;;;;;;37.65;26.98;;;7.40;84.60;;;;;;5070651;28;20028;-70
2021/03/09 09:23:27;;;;;;;40.28;29.67;;;7.30;84.70;;;;;;5061871;28;20163;-71
2021/03/09 09:25:55;;;;;;;41.67;29.08;;;7.40;84.80;;;;;;5061690;28;20357;-70
2021/03/09 09:28:30;;;;;;;43.22;27.88;;;7.50;85.00;;;;;;5065125;28;20044;-70
2021/03/09 09:31:01;;;;;;;40.83;28.58;;;7.50;84.90;;;;;;5059306;28;20033;-70
2021/03/09 09:33:31;;;;;;;39.33;27.80;;;7.60;84.90;;;;;;5059508;28;20047;-71
2021/03/09 09:35:57;;;;;;;37.92;26.35;;;7.60;84.00;;;;;;5063511;28;20025;-70
2021/03/09 09:38:23;;;;;;;43.72;28.75;;;7.60;84.30;;;;;;5063441;28;20546;-70
2021/03/09 09:41:00;;;;;;;40.10;27.85;;;7.70;84.30;;;;;;5063316;28;20463;-70
2021/03/09 09:43:28;;;;;;;38.03;27.63;;;7.70;84.10;;;;;;5059480;28;20041;-71
2021/03/09 09:46:04;;;;;;;42.25;27.98;;;7.70;84.10;;;;;;5064773;28;20036;-70
2021/03/09 09:48:38;;;;;;;36.90;27.00;;;7.70;84.10;;;;;;5059659;28;20048;-71
2021/03/09 09:51:17;;;;;;;40.50;28.40;;;7.50;83.90;;;;;;5042296;28;20029;-74
2021/03/09 09:53:46;;;;;;;36.28;26.08;;;7.50;84.40;;;;;;5053007;28;20040;-70
2021/03/09 09:56:18;;;;;;;41.97;27.92;;;7.50;84.10;;;;;;5065608;28;20040;-69
2021/03/09 09:58:59;;;;;;;38.20;26.48;;;7.60;84.00;;;;;;5066337;28;20476;-69
2021/03/09 10:01:35;;;;;;;38.88;28.02;;;7.60;83.80;;;;;;5054834;28;20502;-70
2021/03/09 10:04:06;;;;;;;36.97;26.17;;;7.60;84.30;;;;;;5062391;28;20033;-72
2021/03/09 10:06:46;;;;;;;38.53;26.80;;;7.50;84.40;;;;;;5063124;28;20031;-70
2021/03/09 10:09:18;;;;;;;35.15;26.83;;;7.50;84.30;;;;;;5065355;28;20036;-71
2021/03/09 10:11:50;;;;;;;43.00;29.13;;;7.50;84.20;;;;;;5062309;28;20082;-71
2021/03/09 10:14:17;;;;;;;38.45;27.65;;;7.60;84.40;;;;;;5062438;28;20502;-70
2021/03/09 10:16:44;;;;;;;38.58;27.73;;;7.60;84.60;;;;;;5064115;28;20036;-70
2021/03/09 10:19:18;;;;;;;37.35;27.77;;;7.50;84.40;;;;;;5062236;28;20621;-69
2021/03/09 10:21:56;;;;;;;37.88;26.70;;;7.50;84.20;;;;;;5065295;28;20526;-71
2021/03/09 10:24:31;;;;;;;39.60;28.08;;;7.60;84.10;;;;;;5060593;28;20040;-72
2021/03/09 10:27:00;;;;;;;36.40;26.70;;;7.60;84.00;;;;;;5066006;28;20111;-71
2021/03/09 10:29:29;;;;;;;37.95;26.00;;;7.60;84.10;;;;;;5059583;28;20024;-71
2021/03/09 10:32:03;;;;;;;40.47;28.63;;;7.70;84.30;;;;;;5066648;28;20036;-71
2021/03/09 10:34:40;;;;;;;38.08;27.27;;;7.90;84.30;;;;;;5040904;28;20554;-73
2021/03/09 10:37:13;;;;;;;38.67;29.90;;;8.10;84.00;;;;;;5039987;28;20112;-74
2021/03/09 10:40:00;;;;;;;41.80;30.48;;;8.20;83.60;;;;;;5039987;28;20124;-70
2021/03/09 10:42:43;;;;;;;39.05;28.02;;;8.40;83.00;;;;;;5036488;28;20049;-70
2021/03/09 10:45:29;;;;;;;35.58;28.15;;;8.30;82.40;;;;;;5044394;28;20041;-69
2021/03/09 10:48:00;;;;;;;42.03;29.33;;;8.30;82.90;;;;;;5041427;28;20056;-71
2021/03/09 10:50:28;;;;;;;36.03;28.88;;;8.20;81.80;;;;;;5043864;28;20504;-72
2021/03/09 10:52:54;;;;;;;41.92;29.27;;;8.00;82.30;;;;;;5042219;28;20039;-71
2021/03/09 10:55:21;;;;;;;42.45;31.35;;;8.10;82.90;;;;;;5044793;28;20028;-70
2021/03/09 10:57:46;;;;;;;45.28;31.92;;;8.10;83.00;;;;;;5040152;28;20047;-70
2021/03/09 11:00:17;;;;;;;41.28;30.90;;;8.10;82.30;;;;;;5039264;28;20212;-70
2021/03/09 11:02:44;;;;;;;41.78;29.55;;;8.10;82.40;;;;;;5043948;28;20060;-72
2021/03/09 11:05:10;;;;;;;39.80;30.58;;;8.20;81.80;;;;;;5038531;28;20571;-72
2021/03/09 11:07:36;;;;;;;43.58;30.77;;;8.20;81.00;;;;;;5047190;28;20040;-72
2021/03/09 11:10:04;;;;;;;42.17;30.38;;;8.30;81.20;;;;;;5040690;28;20037;-71
2021/03/09 11:12:29;;;;;;;46.58;30.30;;;8.30;81.40;;;;;;5037456;28;20068;-72
2021/03/09 11:14:55;;;;;;;42.45;31.50;;;8.50;80.60;;;;;;5039340;28;20029;-70
2021/03/09 11:17:20;;;;;;;37.28;28.25;;;8.60;80.80;;;;;;5036425;28;20480;-70
2021/03/09 11:19:46;;;;;;;39.95;30.63;;;8.80;80.20;;;;;;5042037;28;20042;-70
2021/03/09 11:22:12;;;;;;;37.72;29.55;;;8.90;80.00;;;;;;5042042;28;20036;-71
2021/03/09 11:24:38;;;;;;;40.60;31.45;;;8.90;79.60;;;;;;5045986;28;20498;-70
2021/03/09 11:27:04;;;;;;;40.92;32.97;;;8.90;79.90;;;;;;5043907;28;20040;-70
2021/03/09 11:29:33;;;;;;;38.90;30.38;;;9.00;80.20;;;;;;5043940;28;20021;-70
2021/03/09 11:31:59;;;;;;;44.55;32.67;;;9.00;79.80;;;;;;5031770;28;20629;-70
2021/03/09 11:34:25;;;;;;;48.03;32.85;;;9.00;80.00;;;;;;5042088;28;21005;-70
2021/03/09 11:36:52;;;;;;;41.25;30.55;;;9.00;79.80;;;;;;5048971;28;20460;-70
2021/03/09 11:39:18;;;;;;;38.08;29.88;;;9.20;79.60;;;;;;5035587;28;20044;-71
2021/03/09 11:41:43;;;;;;;41.25;31.15;;;9.10;78.90;;;;;;5062582;28;20029;-71
2021/03/09 11:44:09;;;;;;;36.95;28.98;;;9.20;78.90;;;;;;5053978;28;20052;-72
2021/03/09 11:46:36;;;;;;;41.22;28.25;;;9.20;79.00;;;;;;5044423;28;20036;-72
2021/03/09 11:49:01;;;;;;;38.20;28.73;;;9.10;79.00;;;;;;5063188;28;20098;-71
2021/03/09 11:51:27;;;;;;;39.55;29.48;;;9.10;79.50;;;;;;5046343;28;20511;-70
2021/03/09 11:53:53;;;;;;;39.63;27.88;;;9.20;79.50;;;;;;5036861;28;20041;-72
2021/03/09 11:56:19;;;;;;;39.35;28.42;;;9.40;78.70;;;;;;5046948;28;20116;-71
2021/03/09 11:58:44;;;;;;;38.72;28.73;;;9.40;78.90;;;;;;5067048;28;20123;-73
2021/03/09 12:01:10;;;;;;;39.00;28.17;;;9.30;78.80;;;;;;5051632;28;20392;-71
2021/03/09 12:03:36;;;;;;;37.42;28.65;;;9.10;77.90;;;;;;5058395;28;20036;-70
2021/03/09 12:06:02;;;;;;;39.65;30.10;;;9.00;79.00;;;;;;5062827;28;20043;-71
2021/03/09 12:08:28;;;;;;;36.00;28.83;;;8.90;79.40;;;;;;5042199;28;20042;-70
2021/03/09 12:10:53;;;;;;;42.15;30.25;;;8.90;79.20;;;;;;5050835;28;20025;-71
2021/03/09 12:13:19;;;;;;;39.63;30.80;;;8.80;79.70;;;;;;5058213;28;20044;-71
2021/03/09 12:15:45;;;;;;;43.55;30.13;;;8.70;79.70;;;;;;5041297;28;20048;-71
2021/03/09 12:18:10;;;;;;;40.60;31.30;;;8.80;79.60;;;;;;5035688;28;20037;-73
2021/03/09 12:20:37;;;;;;;37.85;29.30;;;8.90;80.10;;;;;;5046361;28;20174;-71
2021/03/09 12:23:03;;;;;;;38.65;29.55;;;8.90;79.00;;;;;;5039712;28;20029;-72
2021/03/09 12:25:29;;;;;;;37.85;28.45;;;8.80;79.00;;;;;;5045973;28;20033;-71
2021/03/09 12:27:55;;;;;;;40.13;30.25;;;8.80;79.40;;;;;;5043495;28;20476;-72
2021/03/09 12:30:22;;;;;;;38.50;29.25;;;8.80;79.70;;;;;;5041367;28;20044;-71
2021/03/09 12:32:48;;;;;;;42.00;29.73;;;8.80;79.60;;;;;;5041614;28;20032;-72
2021/03/09 12:35:14;;;;;;;39.85;29.70;;;8.80;79.80;;;;;;5038782;28;20029;-71
2021/03/09 12:37:40;;;;;;;37.63;28.80;;;8.90;80.00;;;;;;5038059;28;20400;-74
2021/03/09 12:40:06;;;;;;;40.95;30.00;;;9.10;80.00;;;;;;5041824;28;20044;-73
2021/03/09 12:42:32;;;;;;;42.08;30.35;;;9.00;79.50;;;;;;5044167;28;20034;-71
2021/03/09 12:44:58;;;;;;;39.65;29.05;;;9.00;79.20;;;;;;5045575;28;20021;-72
2021/03/09 12:47:24;;;;;;;37.25;31.20;;;9.10;79.30;;;;;;5036222;28;20054;-70
2021/03/09 12:49:49;;;;;;;37.20;29.60;;;9.20;79.20;;;;;;5041340;28;20028;-70